createdAt,value
2022-08-29T00:01:02.092Z,18.50
2022-08-29T00:03:31.438Z,18.17
2022-08-29T00:06:01.262Z,12.13
2022-08-29T00:08:30.666Z,9.82
2022-08-29T00:11:01.070Z,30.55
2022-08-29T00:13:30.515Z,17.25
2022-08-29T00:15:59.647Z,16.23
2022-08-29T00:18:29.445Z,18.38
2022-08-29T00:20:58.602Z,18.58
2022-08-29T00:23:27.854Z,16.73
2022-08-29T00:25:57.296Z,15.48
2022-08-29T00:28:27.897Z,20.80
2022-08-29T00:30:57.133Z,17.88
2022-08-29T00:33:26.383Z,16.90
2022-08-29T00:35:55.723Z,16.58
2022-08-29T00:38:27.851Z,14.93
2022-08-29T00:40:58.700Z,16.25
2022-08-29T00:43:31.506Z,15.05
2022-08-29T00:46:12.093Z,15.52
2022-08-29T00:48:42.309Z,18.27
2022-08-29T00:51:17.988Z,20.25
2022-08-29T00:53:53.917Z,14.80
2022-08-29T00:56:23.610Z,17.02
2022-08-29T00:58:58.700Z,20.40
2022-08-29T01:01:28.034Z,24.02
2022-08-29T01:03:57.807Z,16.73
2022-08-29T01:06:28.521Z,15.40
2022-08-29T01:08:58.201Z,25.35
2022-08-29T01:11:47.734Z,21.25
2022-08-29T01:14:19.632Z,20.10
2022-08-29T01:16:50.009Z,18.45
2022-08-29T01:19:30.896Z,19.98
2022-08-29T01:22:10.428Z,12.60
2022-08-29T01:24:45.845Z,17.13
2022-08-29T01:27:15.237Z,24.55
2022-08-29T01:29:45.240Z,13.75
2022-08-29T01:32:15.484Z,22.23
2022-08-29T01:34:45.570Z,16.00
2022-08-29T01:37:17.454Z,20.85
2022-08-29T01:39:48.118Z,24.25
2022-08-29T01:42:21.425Z,23.15
2022-08-29T01:44:52.574Z,21.10
2022-08-29T01:47:23.001Z,20.00
2022-08-29T01:49:52.882Z,22.67
2022-08-29T01:52:22.355Z,18.35
2022-08-29T01:54:52.873Z,20.38
2022-08-29T01:57:21.951Z,21.05
2022-08-29T01:59:51.680Z,16.73
2022-08-29T02:02:24.068Z,18.65
2022-08-29T02:04:53.540Z,14.07
2022-08-29T02:07:25.516Z,15.57
2022-08-29T02:09:56.171Z,17.60
2022-08-29T02:12:26.244Z,18.83
2022-08-29T02:14:55.768Z,20.90
2022-08-29T02:17:25.495Z,19.80
2022-08-29T02:19:54.569Z,20.17
2022-08-29T02:22:23.620Z,18.08
2022-08-29T02:24:52.693Z,9.50
2022-08-29T02:27:23.054Z,24.45
2022-08-29T02:29:53.044Z,13.15
2022-08-29T02:32:22.190Z,18.45
2022-08-29T02:34:51.735Z,20.38
2022-08-29T02:37:20.757Z,12.07
2022-08-29T02:39:49.883Z,14.15
2022-08-29T02:42:18.914Z,16.33
2022-08-29T02:44:49.357Z,9.88
2022-08-29T02:47:18.613Z,12.88
2022-08-29T02:49:47.615Z,11.55
2022-08-29T02:52:17.838Z,13.50
2022-08-29T02:54:47.573Z,17.45
2022-08-29T02:57:16.775Z,14.80
2022-08-29T02:59:45.867Z,11.18
2022-08-29T03:02:16.332Z,12.27
2022-08-29T03:04:45.519Z,11.13
2022-08-29T03:07:14.667Z,13.55
2022-08-29T03:09:43.789Z,17.08
2022-08-29T03:12:12.805Z,20.70
2022-08-29T03:14:41.889Z,19.55
2022-08-29T03:17:10.968Z,10.32
2022-08-29T03:19:41.903Z,20.60
2022-08-29T03:22:10.964Z,15.47
2022-08-29T03:24:40.112Z,20.27
2022-08-29T03:27:09.212Z,16.25
2022-08-29T03:29:38.722Z,13.15
2022-08-29T03:32:08.327Z,14.30
2022-08-29T03:34:38.171Z,17.67
2022-08-29T03:37:08.704Z,17.17
2022-08-29T03:39:38.857Z,12.95
2022-08-29T03:42:08.661Z,12.95
2022-08-29T03:44:39.636Z,13.85
2022-08-29T03:47:09.425Z,16.15
2022-08-29T03:49:39.303Z,17.02
2022-08-29T03:52:10.026Z,15.27
2022-08-29T03:54:39.341Z,14.18
2022-08-29T03:57:09.446Z,13.25
2022-08-29T03:59:38.813Z,15.00
2022-08-29T04:02:07.901Z,12.23
2022-08-29T04:04:54.549Z,10.63
2022-08-29T04:07:25.038Z,9.93
2022-08-29T04:09:54.264Z,10.85
2022-08-29T04:12:23.322Z,15.27
2022-08-29T04:14:52.615Z,19.88
2022-08-29T04:17:21.722Z,12.77
2022-08-29T04:19:50.829Z,16.85
2022-08-29T04:22:19.873Z,14.68
2022-08-29T04:24:50.335Z,19.05
2022-08-29T04:27:19.406Z,17.65
2022-08-29T04:29:48.935Z,19.48
2022-08-29T04:32:18.105Z,16.33
2022-08-29T04:34:47.273Z,12.10
2022-08-29T04:37:16.272Z,11.88
2022-08-29T04:39:45.509Z,12.95
2022-08-29T04:42:20.189Z,14.23
2022-08-29T04:44:49.984Z,15.25
2022-08-29T04:47:21.618Z,8.20
2022-08-29T04:49:56.294Z,11.80
2022-08-29T04:52:27.523Z,9.82
2022-08-29T04:54:57.142Z,20.67
2022-08-29T04:57:27.706Z,11.93
2022-08-29T04:59:58.767Z,14.98
2022-08-29T05:02:29.507Z,10.40
2022-08-29T05:04:58.789Z,4.75
2022-08-29T05:07:28.741Z,12.55
2022-08-29T05:10:00.246Z,7.30
2022-08-29T05:12:33.650Z,7.05
2022-08-29T05:15:02.949Z,6.22
2022-08-29T05:17:32.199Z,6.25
2022-08-29T05:20:02.806Z,5.97
2022-08-29T05:22:31.902Z,3.08
2022-08-29T05:25:00.993Z,4.30
2022-08-29T05:27:31.766Z,5.13
2022-08-29T05:30:01.852Z,2.88
2022-08-29T05:32:30.889Z,13.02
2022-08-29T05:35:00.245Z,4.45
2022-08-29T05:37:29.520Z,8.30
2022-08-29T05:39:58.779Z,8.18
2022-08-29T05:42:28.706Z,7.22
2022-08-29T05:44:59.030Z,3.42
2022-08-29T05:47:28.058Z,4.78
2022-08-29T05:49:57.123Z,3.13
2022-08-29T05:52:26.817Z,2.15
2022-08-29T05:54:56.134Z,2.08
2022-08-29T05:57:25.777Z,1.58
2022-08-29T05:59:55.961Z,2.60
2022-08-29T06:02:26.823Z,2.92
2022-08-29T06:04:57.096Z,5.13
2022-08-29T06:07:26.155Z,5.07
2022-08-29T06:09:55.329Z,5.38
2022-08-29T06:12:32.607Z,2.40
2022-08-29T06:15:01.901Z,2.25
2022-08-29T06:17:32.425Z,2.13
2022-08-29T06:20:01.466Z,1.50
2022-08-29T06:22:31.021Z,1.33
2022-08-29T06:25:06.233Z,1.58
2022-08-29T06:27:45.714Z,3.58
2022-08-29T06:30:15.338Z,9.45
2022-08-29T06:32:45.901Z,4.22
2022-08-29T06:35:14.893Z,1.27
2022-08-29T06:37:43.936Z,1.50
2022-08-29T06:40:13.699Z,1.42
2022-08-29T06:42:42.828Z,2.13
2022-08-29T06:45:13.074Z,2.88
2022-08-29T06:47:42.246Z,1.50
2022-08-29T06:50:13.057Z,1.40
2022-08-29T06:52:42.255Z,2.08
2022-08-29T06:55:12.907Z,3.17
2022-08-29T06:57:45.829Z,1.35
2022-08-29T07:00:21.594Z,3.47
2022-08-29T07:02:52.755Z,4.90
2022-08-29T07:05:25.683Z,2.35
2022-08-29T07:07:54.903Z,2.53
2022-08-29T07:10:24.103Z,5.38
2022-08-29T07:12:53.933Z,2.67
2022-08-29T07:15:24.685Z,6.35
2022-08-29T07:17:59.251Z,3.00
2022-08-29T07:20:30.368Z,4.15
2022-08-29T07:22:59.330Z,2.08
2022-08-29T07:25:28.621Z,1.08
2022-08-29T07:27:57.778Z,1.75
2022-08-29T07:30:28.078Z,1.08
2022-08-29T07:32:57.234Z,1.25
2022-08-29T07:35:31.218Z,1.42
2022-08-29T07:38:04.447Z,1.90
2022-08-29T07:40:33.586Z,2.22
2022-08-29T07:43:05.079Z,1.60
2022-08-29T07:45:34.419Z,1.58
2022-08-29T07:48:04.127Z,0.68
2022-08-29T07:50:42.251Z,0.95
2022-08-29T07:53:12.633Z,0.73
2022-08-29T07:55:41.861Z,3.42
2022-08-29T07:58:11.172Z,1.00
2022-08-29T08:00:40.308Z,5.28
2022-08-29T08:03:10.971Z,2.10
2022-08-29T08:05:40.042Z,1.45
2022-08-29T08:08:15.682Z,2.13
2022-08-29T08:10:51.344Z,1.30
2022-08-29T08:13:21.770Z,1.27
2022-08-29T08:15:50.794Z,2.30
2022-08-29T08:18:19.827Z,2.05
2022-08-29T08:20:49.228Z,0.70
2022-08-29T08:23:19.694Z,1.40
2022-08-29T08:25:50.622Z,2.78
2022-08-29T08:28:19.735Z,2.03
2022-08-29T08:30:48.867Z,1.35
2022-08-29T08:33:17.930Z,1.42
2022-08-29T08:35:47.254Z,0.43
2022-08-29T08:38:16.988Z,0.85
2022-08-29T08:40:56.974Z,3.83
2022-08-29T08:43:35.582Z,1.17
2022-08-29T08:46:04.890Z,3.13
2022-08-29T08:48:39.998Z,0.70
2022-08-29T08:51:16.154Z,0.30
2022-08-29T08:53:48.832Z,2.42
2022-08-29T08:56:30.437Z,7.45
2022-08-29T08:59:06.640Z,2.60
2022-08-29T09:01:39.105Z,0.60
2022-08-29T09:04:25.460Z,1.92
2022-08-29T09:07:09.702Z,1.52
2022-08-29T09:09:52.463Z,1.48
2022-08-29T09:12:36.130Z,1.48
2022-08-29T09:15:13.762Z,0.88
2022-08-29T09:17:48.092Z,2.20
2022-08-29T09:20:20.012Z,2.05
2022-08-29T09:22:59.200Z,1.23
2022-08-29T09:25:30.135Z,2.25
2022-08-29T09:28:00.661Z,1.02
2022-08-29T09:30:33.453Z,0.60
2022-08-29T09:33:04.533Z,1.55
2022-08-29T09:35:39.711Z,0.40
2022-08-29T09:38:11.581Z,1.63
2022-08-29T09:40:48.967Z,1.50
2022-08-29T09:43:23.667Z,1.75
2022-08-29T09:46:23.112Z,1.15
2022-08-29T09:48:54.000Z,3.95
2022-08-29T09:51:28.318Z,3.40
2022-08-29T09:54:14.097Z,0.95
2022-08-29T09:56:51.746Z,0.35
2022-08-29T09:59:27.889Z,3.85
2022-08-29T10:02:19.560Z,4.03
2022-08-29T10:04:51.683Z,0.88
2022-08-29T10:07:25.640Z,0.82
2022-08-29T10:10:00.831Z,0.45
2022-08-29T10:12:46.895Z,1.27
2022-08-29T10:15:46.900Z,0.43
2022-08-29T10:18:25.010Z,0.40
2022-08-29T10:21:07.935Z,2.08
2022-08-29T10:23:46.822Z,0.40
2022-08-29T10:26:31.030Z,0.40
2022-08-29T10:29:09.250Z,1.10
2022-08-29T10:31:45.650Z,0.65
2022-08-29T10:34:33.035Z,1.95
2022-08-29T10:37:05.924Z,3.20
2022-08-29T10:39:42.525Z,1.02
2022-08-29T10:42:16.481Z,1.48
2022-08-29T10:44:55.435Z,1.00
2022-08-29T10:47:34.196Z,0.50
2022-08-29T10:50:27.616Z,1.30
2022-08-29T10:53:08.427Z,7.30
2022-08-29T10:55:46.144Z,0.88
2022-08-29T10:58:27.193Z,1.75
2022-08-29T11:01:08.485Z,0.73
2022-08-29T11:03:47.488Z,3.50
2022-08-29T11:06:22.349Z,2.55
2022-08-29T11:08:59.501Z,1.98
2022-08-29T11:11:30.943Z,4.25
2022-08-29T11:14:07.287Z,2.03
2022-08-29T11:16:39.605Z,0.98
2022-08-29T11:19:22.115Z,0.98
2022-08-29T11:21:57.741Z,1.63
2022-08-29T11:24:34.560Z,5.90
2022-08-29T11:27:12.714Z,2.97
2022-08-29T11:29:49.779Z,5.88
2022-08-29T11:32:27.326Z,2.20
2022-08-29T11:35:08.974Z,2.10
2022-08-29T11:38:13.756Z,2.08
2022-08-29T11:44:08.803Z,3.38
2022-08-29T11:46:41.782Z,2.53
2022-08-29T11:49:38.092Z,5.45
2022-08-29T11:52:22.811Z,2.58
2022-08-29T11:55:16.073Z,2.40
2022-08-29T11:57:52.168Z,5.53
2022-08-29T12:00:37.579Z,3.67
2022-08-29T12:03:30.388Z,5.68
2022-08-29T12:06:02.757Z,0.93
2022-08-29T12:08:40.769Z,6.05
2022-08-29T12:11:09.969Z,2.33
2022-08-29T12:14:01.451Z,0.80
2022-08-29T12:16:50.280Z,1.63
2022-08-29T12:19:48.768Z,1.75
2022-08-29T12:22:55.176Z,0.80
2022-08-29T12:26:03.891Z,3.42
2022-08-29T12:28:48.337Z,4.60
2022-08-29T12:32:02.328Z,0.50
2022-08-29T12:34:51.156Z,5.63
2022-08-29T12:37:33.975Z,1.73
2022-08-29T12:40:29.386Z,2.25
2022-08-29T12:43:31.902Z,2.38
2022-08-29T12:46:02.942Z,1.98
2022-08-29T12:48:40.144Z,0.98
2022-08-29T12:51:09.608Z,0.73
2022-08-29T12:53:38.937Z,3.72
2022-08-29T12:56:18.156Z,4.40
2022-08-29T12:58:56.857Z,0.63
2022-08-29T13:01:31.333Z,0.73
2022-08-29T13:04:05.228Z,5.32
2022-08-29T13:06:35.541Z,0.73
2022-08-29T13:09:06.056Z,2.90
2022-08-29T13:11:35.960Z,2.08
2022-08-29T13:14:08.994Z,1.02
2022-08-29T13:16:40.049Z,1.27
2022-08-29T13:19:20.698Z,0.85
2022-08-29T13:21:50.057Z,3.28
2022-08-29T13:24:21.666Z,1.50
2022-08-29T13:27:05.371Z,2.50
2022-08-29T13:29:39.804Z,3.88
2022-08-29T13:32:27.414Z,3.22
2022-08-29T13:35:08.770Z,1.02
2022-08-29T13:37:40.389Z,2.63
2022-08-29T13:40:33.047Z,3.58
2022-08-29T13:43:03.161Z,1.90
2022-08-29T13:45:34.382Z,1.90
2022-08-29T13:48:20.248Z,2.35
2022-08-29T13:50:49.330Z,3.22
2022-08-29T13:53:19.203Z,1.25
2022-08-29T13:55:48.473Z,1.25
2022-08-29T13:58:22.449Z,0.85
2022-08-29T14:00:53.055Z,3.85
2022-08-29T14:03:23.595Z,3.22
2022-08-29T14:05:56.388Z,0.60
2022-08-29T14:08:26.016Z,2.53
2022-08-29T14:10:55.173Z,1.08
2022-08-29T14:13:24.306Z,2.83
2022-08-29T14:15:54.778Z,7.35
2022-08-29T14:18:23.862Z,0.60
2022-08-29T14:20:52.974Z,1.70
2022-08-29T14:23:23.340Z,1.35
2022-08-29T14:25:52.569Z,1.20
2022-08-29T14:28:21.797Z,2.53
2022-08-29T14:30:52.147Z,5.20
2022-08-29T14:33:23.619Z,0.95
2022-08-29T14:35:53.169Z,1.00
2022-08-29T14:38:22.375Z,1.48
2022-08-29T14:40:51.708Z,3.42
2022-08-29T14:43:20.900Z,1.38
2022-08-29T14:45:51.331Z,5.80
2022-08-29T14:48:22.100Z,2.53
2022-08-29T14:51:03.178Z,1.10
2022-08-29T14:53:37.389Z,1.17
2022-08-29T14:56:37.244Z,1.85
2022-08-29T14:59:05.738Z,6.50
2022-08-29T15:01:35.179Z,0.75
2022-08-29T15:04:05.777Z,2.72
2022-08-29T15:06:36.182Z,4.15
2022-08-29T15:09:05.801Z,3.20
2022-08-29T15:11:35.118Z,1.70
2022-08-29T15:14:04.845Z,4.68
2022-08-29T15:16:33.961Z,3.40
2022-08-29T15:21:53.521Z,5.65
2022-08-29T15:24:25.352Z,3.50
2022-08-29T15:26:57.950Z,2.53
2022-08-29T15:29:27.343Z,7.88
2022-08-29T15:31:57.448Z,1.20
2022-08-29T15:34:29.679Z,3.35
2022-08-29T15:36:59.611Z,0.55
2022-08-29T15:39:29.726Z,2.00
2022-08-29T15:42:01.329Z,2.35
2022-08-29T15:44:31.146Z,2.55
2022-08-29T15:47:00.467Z,1.55
2022-08-29T15:49:32.388Z,2.28
2022-08-29T15:52:01.688Z,3.05
2022-08-29T15:54:30.990Z,1.65
2022-08-29T15:57:00.097Z,1.27
2022-08-29T15:59:56.155Z,1.17
2022-08-29T16:02:18.738Z,0.70
2022-08-29T16:04:53.675Z,3.72
2022-08-29T16:07:28.692Z,2.45
2022-08-29T16:10:00.127Z,1.10
2022-08-29T16:12:30.936Z,4.13
2022-08-29T16:15:01.318Z,3.78
2022-08-29T16:17:31.644Z,1.40
2022-08-29T16:20:03.203Z,2.83
2022-08-29T16:22:33.883Z,3.08
2022-08-29T16:25:03.014Z,3.33
2022-08-29T16:27:32.256Z,1.92
2022-08-29T16:30:01.415Z,1.67
2022-08-29T16:32:31.299Z,6.13
2022-08-29T16:35:01.877Z,3.78
2022-08-29T16:37:31.065Z,1.00
2022-08-29T16:40:01.685Z,4.45
2022-08-29T16:42:31.066Z,7.40
2022-08-29T16:45:00.858Z,12.52
2022-08-29T16:47:31.406Z,1.02
2022-08-29T16:50:03.456Z,3.33
2022-08-29T16:52:33.566Z,1.98
2022-08-29T16:55:04.467Z,4.82
2022-08-29T16:57:35.000Z,2.33
2022-08-29T17:00:05.694Z,3.80
2022-08-29T17:02:39.952Z,3.25
2022-08-29T17:05:12.545Z,2.90
2022-08-29T17:07:41.265Z,5.30
2022-08-29T17:10:10.467Z,1.98
2022-08-29T17:12:39.503Z,3.85
2022-08-29T17:15:09.022Z,12.38
2022-08-29T17:17:40.930Z,3.85
2022-08-29T17:20:13.959Z,0.95
2022-08-29T17:22:43.838Z,1.92
2022-08-29T17:25:14.807Z,11.52
2022-08-29T17:28:00.985Z,3.15
2022-08-29T17:30:34.714Z,2.58
2022-08-29T17:33:04.177Z,1.27
2022-08-29T17:35:34.983Z,3.75
2022-08-29T17:38:04.603Z,7.88
2022-08-29T17:40:34.961Z,1.75
2022-08-29T17:43:05.627Z,3.75
2022-08-29T17:45:35.958Z,3.30
2022-08-29T17:48:05.903Z,3.22
2022-08-29T17:50:37.669Z,5.53
2022-08-29T17:53:07.061Z,2.83
2022-08-29T17:55:36.613Z,5.10
2022-08-29T17:58:06.036Z,3.40
2022-08-29T18:00:36.236Z,1.80
2022-08-29T18:03:05.547Z,2.88
2022-08-29T18:05:35.998Z,5.80
2022-08-29T18:08:06.051Z,3.17
2022-08-29T18:10:36.866Z,5.25
2022-08-29T18:13:06.068Z,3.58
2022-08-29T18:15:36.237Z,1.20
2022-08-29T18:18:06.524Z,1.80
2022-08-29T18:20:41.084Z,1.75
2022-08-29T18:23:10.494Z,2.67
2022-08-29T18:25:39.778Z,4.60
2022-08-29T18:28:09.540Z,3.03
2022-08-29T18:30:38.885Z,2.35
2022-08-29T18:33:08.742Z,0.70
2022-08-29T18:35:39.424Z,1.15
2022-08-29T18:38:09.570Z,3.92
2022-08-29T18:40:40.041Z,2.28
2022-08-29T18:43:11.209Z,1.52
2022-08-29T18:45:42.869Z,3.08
2022-08-29T18:48:12.389Z,5.55
2022-08-29T18:50:43.968Z,1.42
2022-08-29T18:53:15.653Z,1.75
2022-08-29T18:55:50.969Z,2.90
2022-08-29T18:58:23.840Z,3.38
2022-08-29T19:00:53.764Z,1.65
2022-08-29T19:03:24.266Z,0.80
2022-08-29T19:05:54.858Z,2.88
2022-08-29T19:08:25.551Z,4.68
2022-08-29T19:10:56.067Z,2.75
2022-08-29T19:13:26.453Z,5.00
2022-08-29T19:16:00.573Z,6.10
2022-08-29T19:18:30.180Z,4.40
2022-08-29T19:21:02.404Z,2.67
2022-08-29T19:23:32.758Z,2.63
2022-08-29T19:26:03.471Z,1.48
2022-08-29T19:28:33.009Z,5.13
2022-08-29T19:31:02.966Z,4.75
2022-08-29T19:33:32.064Z,1.95
2022-08-29T19:36:03.094Z,2.58
2022-08-29T19:38:32.492Z,5.85
2022-08-29T19:41:02.112Z,2.57
2022-08-29T19:43:33.349Z,6.13
2022-08-29T19:46:03.870Z,1.60
2022-08-29T19:48:33.134Z,3.13
2022-08-29T19:51:08.417Z,1.87
2022-08-29T19:53:41.314Z,1.63
2022-08-29T19:56:12.005Z,1.13
2022-08-29T19:58:41.905Z,4.17
2022-08-29T20:01:11.617Z,2.80
2022-08-29T20:03:42.717Z,1.07
2022-08-29T20:06:13.244Z,1.77
2022-08-29T20:08:45.469Z,2.57
2022-08-29T20:11:16.436Z,1.58
2022-08-29T20:13:51.405Z,1.50
2022-08-29T20:16:23.442Z,8.60
2022-08-29T20:18:53.400Z,2.00
2022-08-29T20:21:24.774Z,1.48
2022-08-29T20:23:58.001Z,1.53
2022-08-29T20:26:30.281Z,2.28
2022-08-29T20:29:01.725Z,1.98
2022-08-29T20:31:31.051Z,2.10
2022-08-29T20:34:00.722Z,5.03
2022-08-29T20:36:49.047Z,1.88
2022-08-29T20:39:20.958Z,4.60
2022-08-29T20:41:51.283Z,4.40
2022-08-29T20:44:21.742Z,10.63
2022-08-29T20:46:52.106Z,4.13
2022-08-29T20:49:22.944Z,1.45
2022-08-29T20:51:53.900Z,3.95
2022-08-29T20:54:24.988Z,10.10
2022-08-29T20:56:54.486Z,3.92
2022-08-29T20:59:26.630Z,2.63
2022-08-29T21:01:56.557Z,2.65
2022-08-29T21:04:43.386Z,1.23
2022-08-29T21:07:15.814Z,3.05
2022-08-29T21:09:46.955Z,1.10
2022-08-29T21:12:17.320Z,1.27
2022-08-29T21:14:47.388Z,1.38
2022-08-29T21:17:18.070Z,1.52
2022-08-29T21:19:47.458Z,3.00
2022-08-29T21:22:20.717Z,5.47
2022-08-29T21:24:54.948Z,15.03
2022-08-29T21:27:24.350Z,2.23
2022-08-29T21:29:56.972Z,3.10
2022-08-29T21:32:26.024Z,4.40
2022-08-29T21:34:55.272Z,3.28
2022-08-29T21:37:26.169Z,3.22
2022-08-29T21:39:55.408Z,1.33
2022-08-29T21:42:25.368Z,1.65
2022-08-29T21:44:56.613Z,0.90
2022-08-29T21:47:25.938Z,1.90
2022-08-29T21:49:55.000Z,2.10
2022-08-29T21:52:25.670Z,2.87
2022-08-29T21:54:54.967Z,1.70
2022-08-29T21:57:41.787Z,7.32
2022-08-29T22:00:12.410Z,1.40
2022-08-29T22:02:42.204Z,3.23
2022-08-29T22:05:11.626Z,2.10
2022-08-29T22:07:43.055Z,1.33
2022-08-29T22:10:15.236Z,1.27
2022-08-29T22:12:44.794Z,1.20
2022-08-29T22:15:33.436Z,2.70
2022-08-29T22:18:02.838Z,1.07
2022-08-29T22:20:32.290Z,1.23
2022-08-29T22:23:02.784Z,4.47
2022-08-29T22:25:32.237Z,1.43
2022-08-29T22:28:01.479Z,2.07
2022-08-29T22:30:32.316Z,3.13
2022-08-29T22:33:02.078Z,1.93
2022-08-29T22:35:31.398Z,4.00
2022-08-29T22:38:02.476Z,1.57
2022-08-29T22:40:32.467Z,2.83
2022-08-29T22:43:01.779Z,1.87
2022-08-29T22:45:31.653Z,3.20
2022-08-29T22:48:00.914Z,2.27
2022-08-29T22:50:30.225Z,1.00
2022-08-29T22:53:01.875Z,1.73
2022-08-29T22:55:33.129Z,2.60
2022-08-29T22:58:02.655Z,3.60
2022-08-29T23:00:32.717Z,2.60
2022-08-29T23:03:03.231Z,1.52
2022-08-29T23:05:32.723Z,0.80
2022-08-29T23:08:01.835Z,7.27
2022-08-29T23:10:32.360Z,1.40
2022-08-29T23:13:01.576Z,1.00
2022-08-29T23:15:30.846Z,1.53
2022-08-29T23:18:02.261Z,1.00
2022-08-29T23:20:31.557Z,2.47
2022-08-29T23:23:01.059Z,1.33
2022-08-29T23:25:31.624Z,3.10
2022-08-29T23:28:01.030Z,2.30
2022-08-29T23:30:30.181Z,5.43
2022-08-29T23:33:00.384Z,0.43
2022-08-29T23:35:29.888Z,3.35
2022-08-29T23:37:59.052Z,1.67
2022-08-29T23:40:28.638Z,0.90
2022-08-29T23:42:59.554Z,0.67
2022-08-29T23:45:28.719Z,1.30
2022-08-29T23:47:57.847Z,2.07
2022-08-29T23:50:27.013Z,5.43
2022-08-29T23:52:56.327Z,2.38
2022-08-29T23:55:25.641Z,2.95
2022-08-29T23:57:55.020Z,3.40
